Time;durP1;ratioP1;P1;durP2;ratioP2;P2;SDS_P1;SDS_P2;PMS_P1;PMS_P2;Temp;Humidity;BMP_temperature;BMP_pressure;BME280_temperature;BME280_humidity;BME280_pressure;Samples;Min_cycle;Max_cycle;Signal;HPM_P1;HPM_P2
2023/07/06 00:00:52;;;;;;;1.23;1.13;;;17.30;99.90;;;;;;5000057;28;20181;-87
2023/07/06 00:03:19;;;;;;;2.47;1.10;;;17.30;99.90;;;;;;4999344;28;20177;-86
2023/07/06 00:05:45;;;;;;;1.10;1.00;;;17.40;99.90;;;;;;4996766;28;20177;-86
2023/07/06 00:08:12;;;;;;;2.03;1.00;;;17.40;99.90;;;;;;5011381;28;20206;-87
2023/07/06 00:10:41;;;;;;;1.20;1.10;;;17.40;99.90;;;;;;5011299;28;20174;-86
2023/07/06 00:13:07;;;;;;;2.03;1.83;;;17.40;99.90;;;;;;4997173;28;20701;-89
2023/07/06 00:15:34;;;;;;;1.40;1.30;;;17.40;99.90;;;;;;5011493;28;20229;-86
2023/07/06 00:18:04;;;;;;;1.20;1.20;;;17.40;99.90;;;;;;5011942;28;20182;-87
2023/07/06 00:20:38;;;;;;;1.70;1.60;;;17.40;99.90;;;;;;4998275;28;20651;-86
2023/07/06 00:23:04;;;;;;;1.70;1.10;;;17.40;99.90;;;;;;5013994;28;20227;-87
2023/07/06 00:25:30;;;;;;;1.23;1.23;;;17.50;99.90;;;;;;5014588;28;20265;-87
2023/07/06 00:27:58;;;;;;;1.77;1.10;;;17.40;99.90;;;;;;5014815;28;20249;-86
2023/07/06 00:33:16;;;;;;;1.10;1.00;;;17.50;99.90;;;;;;5004143;28;20166;-85
2023/07/06 00:35:42;;;;;;;1.10;1.10;;;17.50;99.90;;;;;;5035180;28;20166;-88
2023/07/06 00:38:13;;;;;;;1.40;1.30;;;17.50;99.90;;;;;;5020069;28;20181;-88
2023/07/06 00:40:41;;;;;;;2.83;0.90;;;17.50;99.90;;;;;;5004992;28;20217;-87
2023/07/06 00:43:12;;;;;;;1.53;1.53;;;17.40;99.90;;;;;;5022759;28;20192;-86
2023/07/06 00:45:38;;;;;;;1.47;1.17;;;17.50;99.90;;;;;;5012586;28;20677;-88
2023/07/06 00:48:20;;;;;;;3.47;1.70;;;17.50;99.90;;;;;;4999272;28;20226;-87
2023/07/06 00:50:49;;;;;;;1.40;1.30;;;17.50;99.90;;;;;;5010592;28;20264;-88
2023/07/06 00:53:17;;;;;;;1.40;1.40;;;17.50;99.90;;;;;;5002235;28;20227;-87
2023/07/06 00:55:43;;;;;;;1.17;1.10;;;17.40;99.90;;;;;;4998371;28;20177;-87
2023/07/06 00:58:22;;;;;;;0.90;0.90;;;17.40;99.90;;;;;;5015291;28;20670;-88
2023/07/06 01:00:49;;;;;;;1.40;1.30;;;17.40;99.90;;;;;;5014995;28;20183;-87
2023/07/06 01:03:19;;;;;;;1.17;1.10;;;17.40;99.90;;;;;;5015257;28;20506;-87
2023/07/06 01:05:48;;;;;;;1.40;1.30;;;17.30;99.90;;;;;;4997629;28;20206;-87
2023/07/06 01:08:19;;;;;;;1.00;1.00;;;17.30;99.90;;;;;;4997221;28;20239;-85
2023/07/06 01:10:46;;;;;;;1.33;1.27;;;17.40;99.90;;;;;;5014672;28;20628;-88
2023/07/06 01:13:12;;;;;;;1.40;1.30;;;17.30;99.90;;;;;;4997440;28;20208;-87
2023/07/06 01:15:48;;;;;;;1.27;1.10;;;17.30;99.90;;;;;;5015467;28;20163;-87
2023/07/06 01:18:36;;;;;;;1.23;1.23;;;17.30;99.90;;;;;;5018892;28;20528;-86
2023/07/06 01:21:16;;;;;;;2.40;1.43;;;17.30;99.90;;;;;;5015956;28;20185;-88
2023/07/06 01:24:14;;;;;;;1.23;1.23;;;17.30;99.90;;;;;;5018579;28;20548;-86
2023/07/06 01:26:49;;;;;;;3.10;1.60;;;17.30;99.90;;;;;;5016018;28;20169;-86
2023/07/06 01:29:33;;;;;;;1.20;1.20;;;17.30;99.90;;;;;;5017170;28;20176;-86
2023/07/06 01:32:04;;;;;;;4.60;1.07;;;17.30;99.90;;;;;;5037752;28;20177;-87
2023/07/06 01:34:35;;;;;;;1.40;1.20;;;17.40;99.90;;;;;;5015861;28;20258;-89
2023/07/06 01:37:16;;;;;;;1.23;1.00;;;17.40;99.90;;;;;;5014099;28;20637;-86
2023/07/06 01:39:42;;;;;;;1.20;1.20;;;17.40;99.90;;;;;;4997879;28;20243;-88
2023/07/06 01:42:08;;;;;;;1.23;1.20;;;17.40;99.90;;;;;;5007961;28;20577;-88
2023/07/06 01:44:34;;;;;;;1.10;1.10;;;17.40;99.90;;;;;;5018709;28;20176;-87
2023/07/06 01:47:02;;;;;;;3.10;1.27;;;17.40;99.90;;;;;;5017243;28;20208;-87
2023/07/06 01:49:28;;;;;;;1.33;1.13;;;17.50;99.90;;;;;;5018862;28;20192;-85
2023/07/06 01:52:14;;;;;;;1.20;1.10;;;17.50;99.90;;;;;;5001021;28;20201;-86
2023/07/06 01:54:58;;;;;;;1.57;1.30;;;17.40;99.90;;;;;;4998184;28;20237;-86
2023/07/06 01:57:48;;;;;;;1.67;1.47;;;17.40;99.90;;;;;;5003310;28;20164;-87
2023/07/06 02:00:16;;;;;;;1.40;1.40;;;17.30;99.90;;;;;;5003153;28;20622;-87
2023/07/06 02:02:51;;;;;;;1.30;1.30;;;17.30;99.90;;;;;;4999309;28;20174;-88
2023/07/06 02:05:19;;;;;;;1.30;1.30;;;17.30;99.90;;;;;;5013834;28;20181;-87
2023/07/06 02:07:45;;;;;;;1.10;1.10;;;17.30;99.90;;;;;;4998779;28;20285;-87
2023/07/06 02:10:15;;;;;;;1.93;1.30;;;17.30;99.90;;;;;;5013469;28;20741;-87
2023/07/06 02:12:47;;;;;;;1.30;1.30;;;17.30;99.90;;;;;;4998156;28;20631;-87
2023/07/06 02:15:19;;;;;;;2.30;1.50;;;17.30;99.90;;;;;;4997999;28;20184;-86
2023/07/06 02:17:46;;;;;;;2.00;1.50;;;17.30;99.90;;;;;;5013433;28;20178;-87
2023/07/06 02:20:15;;;;;;;1.40;1.30;;;17.20;99.90;;;;;;5015506;28;20731;-87
2023/07/06 02:22:44;;;;;;;1.20;1.20;;;17.30;99.90;;;;;;5012981;28;20181;-87
2023/07/06 02:25:10;;;;;;;1.63;1.40;;;17.20;99.90;;;;;;4998037;28;20173;-87
2023/07/06 02:27:36;;;;;;;2.17;1.67;;;17.30;99.90;;;;;;4996702;28;20220;-86
2023/07/06 02:30:03;;;;;;;1.53;1.43;;;17.30;99.90;;;;;;5013332;28;20181;-88
2023/07/06 02:32:28;;;;;;;1.33;1.33;;;17.30;99.90;;;;;;4997502;28;20183;-87
2023/07/06 02:34:54;;;;;;;1.57;1.47;;;17.30;99.90;;;;;;5013195;28;20174;-85
2023/07/06 02:37:21;;;;;;;1.60;1.40;;;17.30;99.90;;;;;;4997892;28;20184;-86
2023/07/06 02:39:47;;;;;;;1.50;1.40;;;17.30;99.90;;;;;;4999511;28;20177;-87
2023/07/06 02:42:14;;;;;;;1.37;1.30;;;17.30;99.90;;;;;;4999391;28;20642;-85
2023/07/06 02:44:41;;;;;;;2.50;1.80;;;17.20;99.90;;;;;;5000527;28;20528;-87
2023/07/06 02:47:11;;;;;;;2.70;1.60;;;17.30;99.90;;;;;;5014891;28;20208;-86
2023/07/06 02:49:37;;;;;;;2.93;1.60;;;17.20;99.90;;;;;;5032188;28;20183;-88
2023/07/06 02:52:04;;;;;;;1.47;1.37;;;17.20;99.90;;;;;;5019851;28;20189;-87
2023/07/06 02:54:32;;;;;;;1.70;1.60;;;17.20;99.90;;;;;;5027979;28;20726;-86
2023/07/06 02:57:00;;;;;;;1.60;1.50;;;17.30;99.90;;;;;;5015977;28;20219;-88
2023/07/06 02:59:33;;;;;;;1.70;1.60;;;17.20;99.90;;;;;;5018944;28;20185;-88
2023/07/06 03:01:58;;;;;;;1.40;1.40;;;17.20;99.90;;;;;;5025075;28;20173;-88
2023/07/06 03:04:27;;;;;;;1.50;1.40;;;17.20;99.90;;;;;;4999346;28;20181;-87
2023/07/06 03:06:55;;;;;;;1.60;1.50;;;17.30;99.90;;;;;;4999870;28;20189;-88
2023/07/06 03:09:22;;;;;;;1.70;1.40;;;17.20;99.90;;;;;;5002166;28;20185;-87
2023/07/06 03:11:49;;;;;;;1.70;1.60;;;17.30;99.90;;;;;;5023594;28;20221;-89
2023/07/06 03:14:15;;;;;;;1.60;1.50;;;17.20;99.90;;;;;;5007303;28;20192;-88
2023/07/06 03:16:42;;;;;;;1.70;1.43;;;17.20;99.90;;;;;;5016931;28;20662;-85
2023/07/06 03:19:10;;;;;;;1.67;1.57;;;17.20;99.90;;;;;;5017797;28;20187;-87
2023/07/06 03:21:38;;;;;;;1.80;1.80;;;17.20;99.90;;;;;;5018918;28;20214;-86
2023/07/06 03:24:06;;;;;;;1.50;1.50;;;17.20;99.90;;;;;;5037065;28;20177;-87
2023/07/06 03:26:34;;;;;;;2.00;1.90;;;17.20;99.90;;;;;;5019772;28;20206;-87
2023/07/06 03:29:07;;;;;;;2.07;1.87;;;17.20;99.90;;;;;;5018295;28;20306;-88
2023/07/06 03:31:35;;;;;;;1.70;1.60;;;17.20;99.90;;;;;;5019299;28;20179;-86
2023/07/06 03:34:02;;;;;;;1.70;1.60;;;17.30;99.90;;;;;;5017864;28;20548;-86
2023/07/06 03:36:28;;;;;;;2.87;1.80;;;17.30;99.90;;;;;;5032356;28;20219;-86
2023/07/06 03:38:54;;;;;;;2.20;1.70;;;17.30;99.90;;;;;;5016119;28;20660;-88
2023/07/06 03:41:20;;;;;;;1.47;1.43;;;17.30;99.90;;;;;;5016591;28;20648;-87
2023/07/06 03:43:46;;;;;;;1.53;1.53;;;17.30;99.90;;;;;;5032695;28;20265;-87
2023/07/06 03:46:12;;;;;;;2.40;2.30;;;17.40;99.90;;;;;;5021752;28;20268;-86
2023/07/06 03:48:44;;;;;;;1.40;1.40;;;17.40;99.90;;;;;;4995981;28;20686;-87
2023/07/06 03:51:10;;;;;;;2.60;1.63;;;17.40;99.90;;;;;;5009466;28;20546;-86
2023/07/06 03:53:36;;;;;;;1.50;1.50;;;17.50;99.90;;;;;;5018010;28;20298;-87
2023/07/06 03:56:03;;;;;;;1.80;1.70;;;17.50;99.90;;;;;;5036913;28;20200;-85
2023/07/06 03:58:29;;;;;;;2.10;1.90;;;17.50;99.90;;;;;;5020302;28;20188;-86
2023/07/06 04:00:58;;;;;;;2.23;2.03;;;17.60;99.90;;;;;;5029709;28;20180;-85
2023/07/06 04:03:27;;;;;;;2.03;1.93;;;17.70;99.90;;;;;;5038028;28;20198;-87
2023/07/06 04:05:53;;;;;;;1.53;1.50;;;17.70;99.90;;;;;;5053679;28;20181;-86
2023/07/06 04:08:22;;;;;;;2.03;1.93;;;17.70;99.90;;;;;;5029571;28;20626;-85
2023/07/06 04:10:48;;;;;;;1.73;1.67;;;17.80;99.90;;;;;;5023327;28;20176;-87
2023/07/06 04:13:14;;;;;;;2.13;1.90;;;17.70;99.90;;;;;;5039945;28;20173;-86
2023/07/06 04:15:44;;;;;;;1.67;1.67;;;17.70;99.90;;;;;;5037524;28;20203;-86
2023/07/06 04:18:10;;;;;;;1.70;1.60;;;17.70;99.90;;;;;;5020755;28;20187;-86
2023/07/06 04:20:36;;;;;;;2.07;1.80;;;17.70;99.90;;;;;;5021490;28;20175;-87
2023/07/06 04:23:02;;;;;;;1.77;1.67;;;17.70;99.90;;;;;;5040563;28;20176;-88
2023/07/06 04:25:30;;;;;;;1.50;1.50;;;17.70;99.90;;;;;;5026812;28;20183;-87
2023/07/06 04:28:05;;;;;;;2.17;2.07;;;17.80;99.90;;;;;;5022421;28;20244;-87
2023/07/06 04:30:35;;;;;;;1.93;1.83;;;17.80;99.90;;;;;;5026739;28;20655;-87
2023/07/06 04:33:02;;;;;;;1.60;1.60;;;17.80;99.90;;;;;;5034845;28;20186;-87
2023/07/06 04:35:28;;;;;;;2.43;2.23;;;17.80;99.90;;;;;;5038201;28;20177;-87
2023/07/06 04:37:54;;;;;;;2.27;2.07;;;17.80;99.90;;;;;;5053059;28;20258;-87
2023/07/06 04:40:21;;;;;;;1.93;1.83;;;17.80;99.90;;;;;;5054979;28;20160;-86
2023/07/06 04:42:54;;;;;;;1.97;1.83;;;17.80;99.90;;;;;;5039938;28;20175;-86
2023/07/06 04:45:22;;;;;;;1.90;1.80;;;17.80;99.90;;;;;;5025116;28;20320;-87
2023/07/06 04:47:48;;;;;;;1.70;1.70;;;17.90;99.90;;;;;;5038006;28;20280;-87
2023/07/06 04:50:22;;;;;;;1.90;1.80;;;17.90;99.90;;;;;;5047334;28;20171;-88
2023/07/06 04:52:51;;;;;;;1.93;1.83;;;18.00;99.90;;;;;;5036037;28;20176;-86
2023/07/06 04:55:22;;;;;;;1.60;1.60;;;17.40;99.90;;;;;;5025190;28;20169;-86
2023/07/06 04:57:55;;;;;;;2.30;2.10;;;18.00;99.90;;;;;;5038861;28;20169;-87
2023/07/06 05:00:24;;;;;;;2.60;1.80;;;18.10;99.90;;;;;;5022931;28;20294;-87
2023/07/06 05:02:58;;;;;;;3.33;2.17;;;18.10;99.90;;;;;;5023573;28;20177;-86
2023/07/06 05:05:28;;;;;;;1.77;1.63;;;18.10;99.90;;;;;;5041397;28;20195;-88
2023/07/06 05:07:55;;;;;;;1.80;1.70;;;18.20;99.90;;;;;;5041476;28;20204;-87
2023/07/06 05:10:21;;;;;;;1.80;1.70;;;18.20;99.90;;;;;;5030463;28;20169;-86
2023/07/06 05:12:47;;;;;;;2.47;2.10;;;18.30;99.90;;;;;;5035965;28;20184;-88
2023/07/06 05:15:14;;;;;;;2.10;1.90;;;18.30;99.90;;;;;;5036099;28;20624;-86
2023/07/06 05:17:40;;;;;;;2.30;2.10;;;18.40;99.90;;;;;;5049514;28;20185;-86
2023/07/06 05:20:07;;;;;;;1.83;1.73;;;18.40;99.90;;;;;;5037542;28;20200;-87
2023/07/06 05:22:39;;;;;;;2.40;2.20;;;18.40;99.90;;;;;;5036984;28;20168;-86
2023/07/06 05:25:11;;;;;;;1.90;1.80;;;18.40;99.90;;;;;;5038504;28;20608;-86
2023/07/06 05:27:37;;;;;;;2.30;2.07;;;18.20;99.90;;;;;;5033257;28;20235;-85
2023/07/06 05:30:05;;;;;;;2.20;2.10;;;18.20;99.90;;;;;;5016937;28;20192;-85
2023/07/06 05:32:31;;;;;;;2.03;1.93;;;17.80;99.90;;;;;;5034194;28;20172;-85
2023/07/06 05:34:57;;;;;;;2.13;1.90;;;18.20;99.90;;;;;;5034389;28;20247;-85
2023/07/06 05:37:23;;;;;;;2.00;1.90;;;18.20;99.90;;;;;;5033893;28;20648;-85
2023/07/06 05:39:49;;;;;;;1.80;1.70;;;18.20;99.90;;;;;;5016332;28;20548;-87
2023/07/06 05:42:17;;;;;;;2.23;1.90;;;18.30;99.90;;;;;;5034317;28;20173;-85
2023/07/06 05:44:44;;;;;;;2.70;2.10;;;18.40;99.90;;;;;;5016766;28;20183;-85
2023/07/06 05:47:10;;;;;;;2.60;2.40;;;18.60;99.90;;;;;;5015831;28;20207;-85
2023/07/06 05:49:36;;;;;;;2.80;2.03;;;18.60;99.90;;;;;;5026786;28;20185;-85
2023/07/06 05:52:04;;;;;;;2.07;1.97;;;18.80;99.90;;;;;;5041748;28;20195;-85
2023/07/06 05:54:30;;;;;;;2.27;2.17;;;18.90;99.90;;;;;;5022961;28;20327;-86
2023/07/06 05:56:57;;;;;;;4.37;2.43;;;19.00;99.90;;;;;;5014326;28;20268;-86
2023/07/06 05:59:26;;;;;;;2.87;2.20;;;19.10;99.90;;;;;;4996471;28;20177;-85
2023/07/06 06:01:53;;;;;;;2.47;2.37;;;19.30;99.90;;;;;;5014292;28;20281;-86
2023/07/06 06:04:19;;;;;;;2.27;2.17;;;19.40;99.90;;;;;;4997029;28;20196;-86
2023/07/06 06:06:52;;;;;;;3.13;2.30;;;19.50;99.90;;;;;;5015306;28;20177;-86
2023/07/06 06:09:18;;;;;;;4.17;2.30;;;19.70;99.90;;;;;;5016639;28;20192;-86
2023/07/06 06:11:45;;;;;;;3.87;2.33;;;19.70;99.90;;;;;;5023527;28;20169;-91
2023/07/06 06:14:13;;;;;;;2.47;2.27;;;19.50;99.90;;;;;;4990890;28;20217;-89
2023/07/06 06:16:40;;;;;;;2.50;2.30;;;19.40;99.90;;;;;;4996139;28;20212;-85
2023/07/06 06:19:07;;;;;;;3.20;3.00;;;19.30;99.90;;;;;;5034385;28;20196;-84
2023/07/06 06:21:33;;;;;;;4.27;2.40;;;19.40;99.90;;;;;;5038765;28;20180;-85
2023/07/06 06:24:01;;;;;;;2.40;2.20;;;19.60;99.90;;;;;;5036436;28;20176;-85
2023/07/06 06:26:27;;;;;;;2.87;2.30;;;19.80;99.90;;;;;;5016401;28;20180;-84
2023/07/06 06:28:53;;;;;;;2.40;2.30;;;19.90;99.90;;;;;;5019645;28;20238;-85
2023/07/06 06:31:20;;;;;;;4.40;2.37;;;19.80;99.90;;;;;;5026626;28;20181;-87
2023/07/06 06:33:46;;;;;;;2.50;2.30;;;19.90;99.90;;;;;;5026572;28;20180;-85
2023/07/06 06:36:16;;;;;;;2.97;2.77;;;20.00;99.90;;;;;;5019877;28;20193;-86
2023/07/06 06:38:42;;;;;;;2.97;2.57;;;20.20;99.90;;;;;;5017921;28;20200;-85
2023/07/06 06:41:08;;;;;;;2.23;2.13;;;20.30;99.90;;;;;;5017786;28;20547;-86
2023/07/06 06:43:38;;;;;;;2.30;2.20;;;20.50;99.90;;;;;;5017588;28;20174;-85
2023/07/06 06:46:08;;;;;;;2.43;2.23;;;20.60;99.90;;;;;;5017253;28;20188;-85
2023/07/06 06:48:35;;;;;;;2.77;2.40;;;20.70;99.90;;;;;;5002376;28;20603;-86
2023/07/06 06:51:02;;;;;;;2.60;2.40;;;20.80;99.90;;;;;;5017762;28;20239;-84
2023/07/06 06:53:28;;;;;;;2.40;2.30;;;20.90;99.90;;;;;;5022554;28;20232;-87
2023/07/06 06:55:55;;;;;;;2.30;2.20;;;21.00;99.90;;;;;;5017147;28;20251;-86
2023/07/06 06:58:21;;;;;;;5.30;2.33;;;21.00;99.90;;;;;;5017831;28;20637;-85
2023/07/06 07:00:47;;;;;;;2.50;2.40;;;21.10;99.90;;;;;;5020957;28;20173;-86
2023/07/06 07:03:14;;;;;;;2.43;2.33;;;21.00;99.90;;;;;;5000648;28;20577;-84
2023/07/06 07:05:40;;;;;;;2.27;2.10;;;20.90;99.90;;;;;;5000253;28;20185;-86
2023/07/06 07:08:07;;;;;;;3.90;2.10;;;20.80;99.90;;;;;;5001180;28;20216;-84
2023/07/06 07:10:33;;;;;;;2.80;2.60;;;20.80;99.90;;;;;;5031724;28;20169;-85
2023/07/06 07:12:59;;;;;;;3.57;2.20;;;20.90;99.90;;;;;;5019633;28;20169;-84
2023/07/06 07:15:25;;;;;;;2.90;2.70;;;20.70;99.90;;;;;;5002541;28;20181;-83
2023/07/06 07:17:51;;;;;;;2.40;2.20;;;20.80;99.90;;;;;;5020335;28;20252;-86
2023/07/06 07:20:18;;;;;;;2.40;2.20;;;21.00;99.90;;;;;;5012148;28;20181;-85
2023/07/06 07:22:47;;;;;;;2.30;2.10;;;21.00;99.90;;;;;;5030674;28;20173;-86
2023/07/06 07:25:13;;;;;;;2.37;2.17;;;21.20;99.90;;;;;;5002027;28;20187;-84
2023/07/06 07:27:39;;;;;;;2.00;1.90;;;21.50;99.90;;;;;;5000020;28;20213;-86
2023/07/06 07:30:09;;;;;;;2.30;2.20;;;21.50;99.90;;;;;;5017117;28;20197;-87
2023/07/06 07:32:35;;;;;;;2.10;2.00;;;21.40;99.90;;;;;;4998421;28;20184;-86
2023/07/06 07:35:01;;;;;;;2.30;2.10;;;21.20;99.90;;;;;;4998669;28;20514;-85
2023/07/06 07:37:26;;;;;;;4.70;2.17;;;21.10;99.90;;;;;;5015767;28;20179;-86
2023/07/06 07:39:53;;;;;;;2.43;2.33;;;21.00;99.90;;;;;;5015540;28;20238;-86
2023/07/06 07:42:19;;;;;;;2.73;2.53;;;21.00;99.90;;;;;;4997852;28;20182;-86
2023/07/06 07:44:45;;;;;;;3.27;2.43;;;21.10;99.90;;;;;;5015980;28;20177;-85
2023/07/06 07:47:18;;;;;;;2.60;2.40;;;21.20;99.90;;;;;;4997962;28;20677;-85
2023/07/06 07:49:47;;;;;;;3.23;2.53;;;21.30;99.90;;;;;;5016068;28;20172;-83
2023/07/06 07:52:14;;;;;;;2.40;2.20;;;21.20;99.90;;;;;;5018254;28;20173;-84
2023/07/06 07:54:40;;;;;;;2.20;2.10;;;21.60;99.90;;;;;;5002460;28;20287;-85
2023/07/06 07:57:07;;;;;;;2.83;2.03;;;21.60;99.90;;;;;;5025400;28;20161;-85
2023/07/06 07:59:33;;;;;;;2.93;2.73;;;21.80;99.90;;;;;;5029238;28;20196;-86
2023/07/06 08:01:59;;;;;;;4.27;2.30;;;21.80;99.90;;;;;;5017644;28;20183;-84
2023/07/06 08:04:25;;;;;;;2.17;2.00;;;21.90;99.90;;;;;;4998496;28;20228;-86
2023/07/06 08:06:51;;;;;;;2.10;1.90;;;22.00;99.90;;;;;;4998409;28;20188;-84
2023/07/06 08:09:17;;;;;;;2.37;2.10;;;21.90;99.90;;;;;;5013341;28;20205;-85
2023/07/06 08:11:46;;;;;;;2.33;2.13;;;22.10;99.90;;;;;;5044849;28;20183;-84
2023/07/06 08:14:13;;;;;;;2.17;1.90;;;22.10;99.90;;;;;;5038709;28;20172;-85
2023/07/06 08:16:42;;;;;;;1.95;1.85;;;22.20;99.90;;;;;;4999304;28;20354;-84
2023/07/06 08:19:08;;;;;;;1.55;1.55;;;22.10;99.90;;;;;;5014998;28;20170;-84
2023/07/06 08:21:34;;;;;;;1.75;1.65;;;22.30;99.90;;;;;;5015200;28;20185;-86
2023/07/06 08:24:00;;;;;;;2.60;1.70;;;22.50;99.90;;;;;;5014960;28;20617;-85
2023/07/06 08:26:31;;;;;;;1.90;1.80;;;22.70;99.90;;;;;;4997260;28;20181;-84
2023/07/06 08:28:57;;;;;;;1.75;1.65;;;22.80;99.90;;;;;;5014686;28;20216;-85
2023/07/06 08:31:24;;;;;;;1.92;1.60;;;22.70;99.90;;;;;;5018172;28;20180;-86
2023/07/06 08:33:50;;;;;;;2.75;1.90;;;22.70;99.90;;;;;;5001491;28;20177;-85
2023/07/06 08:36:20;;;;;;;2.03;1.92;;;22.80;99.90;;;;;;4998642;28;20200;-85
2023/07/06 08:38:46;;;;;;;2.13;1.90;;;22.80;99.90;;;;;;5014616;28;20173;-85
2023/07/06 08:41:33;;;;;;;1.98;1.75;;;23.00;99.90;;;;;;4997152;28;20176;-84
2023/07/06 08:44:00;;;;;;;1.98;1.88;;;22.90;99.90;;;;;;4997218;28;20211;-84
2023/07/06 08:46:34;;;;;;;2.10;1.80;;;23.10;99.90;;;;;;4997304;28;20212;-85
2023/07/06 08:49:00;;;;;;;1.83;1.73;;;23.30;99.90;;;;;;4996689;28;20275;-86
2023/07/06 08:51:35;;;;;;;2.28;1.83;;;23.50;99.90;;;;;;5014656;28;20656;-84
2023/07/06 08:54:05;;;;;;;1.88;1.77;;;23.70;99.90;;;;;;5014348;28;20664;-86
2023/07/06 08:56:36;;;;;;;2.13;1.80;;;23.50;99.90;;;;;;5015421;28;20252;-86
2023/07/06 08:59:07;;;;;;;1.60;1.50;;;23.40;99.90;;;;;;4997738;28;20173;-85
2023/07/06 09:01:34;;;;;;;1.70;1.60;;;23.70;99.90;;;;;;5018563;28;20181;-84
2023/07/06 09:04:12;;;;;;;1.90;1.80;;;23.90;99.90;;;;;;5017820;28;20169;-85
2023/07/06 09:06:42;;;;;;;2.03;1.92;;;23.80;99.90;;;;;;4981299;28;20180;-85
2023/07/06 09:09:08;;;;;;;2.72;1.70;;;23.50;99.90;;;;;;5014750;28;20201;-85
2023/07/06 09:11:34;;;;;;;1.80;1.70;;;23.60;99.90;;;;;;5014148;28;20227;-86
2023/07/06 09:14:07;;;;;;;3.50;1.77;;;23.60;99.90;;;;;;4997618;28;20272;-85
2023/07/06 09:16:45;;;;;;;1.95;1.85;;;23.20;99.90;;;;;;5015694;28;20207;-85
2023/07/06 09:19:14;;;;;;;1.70;1.60;;;23.30;99.90;;;;;;5014405;28;20505;-85
2023/07/06 09:21:50;;;;;;;1.92;1.83;;;23.10;99.90;;;;;;5015071;28;20173;-85
2023/07/06 09:24:16;;;;;;;1.98;1.88;;;23.20;99.90;;;;;;5017399;28;20525;-85
2023/07/06 09:26:44;;;;;;;2.65;1.83;;;23.20;99.90;;;;;;5017010;28;20176;-85
2023/07/06 09:29:13;;;;;;;2.28;2.00;;;23.10;99.90;;;;;;5017703;28;20208;-85
2023/07/06 09:31:39;;;;;;;1.83;1.73;;;23.10;99.90;;;;;;5002202;28;20173;-86
2023/07/06 09:34:10;;;;;;;1.90;1.80;;;23.30;99.90;;;;;;5010289;28;20544;-84
2023/07/06 09:36:36;;;;;;;2.40;1.80;;;23.40;99.90;;;;;;5036076;28;20165;-87
2023/07/06 09:39:09;;;;;;;2.00;1.90;;;23.60;99.90;;;;;;5011205;28;20193;-86
2023/07/06 09:41:44;;;;;;;2.00;1.83;;;23.60;99.90;;;;;;4996515;28;20177;-86
2023/07/06 09:44:15;;;;;;;2.00;1.90;;;23.70;99.90;;;;;;4996640;28;20183;-86
2023/07/06 09:46:41;;;;;;;2.55;2.35;;;23.80;99.90;;;;;;4998313;28;20507;-85
2023/07/06 09:49:20;;;;;;;2.00;1.90;;;24.00;99.90;;;;;;5015212;28;20227;-86
2023/07/06 09:52:05;;;;;;;1.75;1.73;;;24.20;99.90;;;;;;5017775;28;20553;-85
2023/07/06 09:54:46;;;;;;;2.42;1.92;;;24.20;99.90;;;;;;5013755;28;20319;-85
2023/07/06 09:57:17;;;;;;;3.75;2.15;;;24.10;99.90;;;;;;5005526;28;20223;-85
2023/07/06 09:59:48;;;;;;;1.80;1.70;;;24.10;99.90;;;;;;5020333;28;20164;-86
2023/07/06 10:02:46;;;;;;;2.10;2.00;;;24.10;99.90;;;;;;5018688;28;20256;-86
2023/07/06 10:05:32;;;;;;;1.92;1.83;;;23.60;99.90;;;;;;5000772;28;20182;-85
2023/07/06 10:08:02;;;;;;;2.30;2.10;;;23.20;99.90;;;;;;5019841;28;20204;-85
2023/07/06 10:10:58;;;;;;;1.77;1.67;;;23.10;99.90;;;;;;5003154;28;20188;-86
2023/07/06 10:13:33;;;;;;;1.98;1.80;;;23.20;99.90;;;;;;5003994;28;20170;-85
2023/07/06 10:16:10;;;;;;;1.92;1.83;;;23.40;99.90;;;;;;5019360;28;20168;-85
2023/07/06 10:18:57;;;;;;;2.15;1.70;;;23.70;99.90;;;;;;5000318;28;20172;-85
2023/07/06 10:21:44;;;;;;;2.65;2.45;;;24.00;99.90;;;;;;5018021;28;20211;-87
2023/07/06 10:24:22;;;;;;;2.20;2.10;;;24.20;99.90;;;;;;5017418;28;20196;-87
2023/07/06 10:26:54;;;;;;;2.50;2.30;;;24.40;99.90;;;;;;5001043;28;20736;-85
2023/07/06 10:29:34;;;;;;;2.15;2.00;;;24.30;99.90;;;;;;5004227;28;20596;-85
2023/07/06 10:32:07;;;;;;;2.30;2.20;;;24.10;99.90;;;;;;5021153;28;20304;-84
2023/07/06 10:34:44;;;;;;;2.03;1.92;;;23.90;99.90;;;;;;5000683;28;20169;-86
2023/07/06 10:37:14;;;;;;;2.05;1.88;;;23.80;99.90;;;;;;5017756;28;20629;-85
2023/07/06 10:39:43;;;;;;;2.28;2.17;;;23.80;99.90;;;;;;5017327;28;20177;-85
2023/07/06 10:42:27;;;;;;;2.42;2.03;;;23.80;99.90;;;;;;5018258;28;20537;-84
2023/07/06 10:44:58;;;;;;;3.13;2.15;;;23.80;99.90;;;;;;5017239;28;20162;-85
2023/07/06 10:47:33;;;;;;;2.20;2.10;;;24.00;99.90;;;;;;4999795;28;20196;-85
2023/07/06 10:50:07;;;;;;;1.90;1.80;;;24.20;99.90;;;;;;5018052;28;20266;-87
2023/07/06 10:52:49;;;;;;;1.98;1.85;;;24.20;99.90;;;;;;5010954;28;20159;-87
2023/07/06 10:55:18;;;;;;;2.40;2.20;;;24.30;99.90;;;;;;5030237;28;20185;-88
2023/07/06 10:57:51;;;;;;;2.72;2.25;;;24.30;99.90;;;;;;5018825;28;20177;-85
2023/07/06 11:00:20;;;;;;;2.55;2.20;;;24.30;99.90;;;;;;5000261;28;20181;-88
2023/07/06 11:02:46;;;;;;;2.83;2.20;;;24.00;99.90;;;;;;4999712;28;20212;-84
2023/07/06 11:05:25;;;;;;;2.10;2.00;;;24.10;99.90;;;;;;5017013;28;20165;-85
2023/07/06 11:07:54;;;;;;;2.47;2.28;;;24.10;99.90;;;;;;5016620;28;20204;-86
2023/07/06 11:10:27;;;;;;;2.05;1.95;;;24.00;99.90;;;;;;5017058;28;20173;-86
2023/07/06 11:13:15;;;;;;;2.25;2.03;;;24.40;99.90;;;;;;5017293;28;20224;-87
2023/07/06 11:15:51;;;;;;;2.75;1.85;;;24.70;99.90;;;;;;5034860;28;20185;-85
2023/07/06 11:18:44;;;;;;;2.75;2.30;;;24.90;99.90;;;;;;5019854;28;20204;-84
2023/07/06 11:21:36;;;;;;;2.08;1.98;;;24.90;99.90;;;;;;5016259;28;20621;-85
2023/07/06 11:24:07;;;;;;;2.25;2.00;;;24.40;99.90;;;;;;5016694;28;20169;-85
2023/07/06 11:26:47;;;;;;;2.17;2.08;;;24.40;99.90;;;;;;5016249;28;20187;-86
2023/07/06 11:29:14;;;;;;;2.10;1.88;;;24.40;99.90;;;;;;5023986;28;20664;-85
2023/07/06 11:32:11;;;;;;;2.38;2.28;;;24.20;99.90;;;;;;5017676;28;20169;-85
2023/07/06 11:34:48;;;;;;;2.40;2.30;;;24.20;99.90;;;;;;5016650;28;20169;-85
2023/07/06 11:37:26;;;;;;;2.58;2.45;;;24.20;99.90;;;;;;5016551;28;20172;-84
2023/07/06 11:40:24;;;;;;;2.58;2.20;;;24.50;99.90;;;;;;5001810;28;20175;-85
2023/07/06 11:42:59;;;;;;;1.95;1.90;;;24.90;99.90;;;;;;5010427;28;20182;-85
2023/07/06 11:45:40;;;;;;;2.25;2.10;;;25.00;99.90;;;;;;5020035;28;20161;-85
2023/07/06 11:48:18;;;;;;;2.45;2.25;;;25.20;99.90;;;;;;5019770;28;20204;-85
2023/07/06 11:50:46;;;;;;;2.90;2.40;;;25.40;99.90;;;;;;5022085;28;20165;-85
2023/07/06 11:53:54;;;;;;;4.20;2.20;;;25.40;99.90;;;;;;5029783;28;20266;-84
2023/07/06 11:56:18;;;;;;;2.60;2.13;;;25.40;99.90;;;;;;5035003;28;20181;-85
2023/07/06 11:58:59;;;;;;;2.28;2.17;;;25.40;99.90;;;;;;5035947;28;20157;-84
2023/07/06 12:01:42;;;;;;;3.03;2.10;;;25.60;99.90;;;;;;5026920;28;20247;-85
2023/07/06 12:04:20;;;;;;;3.72;2.60;;;25.70;99.90;;;;;;5044410;28;20161;-85
2023/07/06 12:06:48;;;;;;;4.03;3.03;;;25.80;99.90;;;;;;5026094;28;20172;-84
2023/07/06 12:09:23;;;;;;;7.93;2.28;;;26.00;99.90;;;;;;5020387;28;20224;-85
2023/07/06 12:12:15;;;;;;;2.30;2.20;;;26.00;99.90;;;;;;5020191;28;20180;-87
2023/07/06 12:14:42;;;;;;;2.55;2.45;;;25.80;99.90;;;;;;5038808;28;20193;-85
2023/07/06 12:17:11;;;;;;;2.25;2.15;;;25.70;99.90;;;;;;5037012;28;20175;-85
2023/07/06 12:19:41;;;;;;;2.25;2.15;;;25.70;99.90;;;;;;5017401;28;20173;-87
2023/07/06 12:22:18;;;;;;;2.10;2.00;;;25.60;99.90;;;;;;5017670;28;20177;-85
2023/07/06 12:24:44;;;;;;;2.33;2.20;;;25.80;99.90;;;;;;5017667;28;20255;-85
2023/07/06 12:27:16;;;;;;;2.40;2.10;;;25.90;99.90;;;;;;5020693;28;20199;-84
2023/07/06 12:29:45;;;;;;;2.63;2.20;;;25.80;99.90;;;;;;5004897;28;20191;-88
2023/07/06 12:32:19;;;;;;;2.70;2.50;;;25.60;99.90;;;;;;5018058;28;20176;-86
2023/07/06 12:34:52;;;;;;;2.38;2.28;;;25.60;99.90;;;;;;5017795;28;20229;-87
2023/07/06 12:37:20;;;;;;;2.65;2.45;;;25.70;99.90;;;;;;5017505;28;20234;-85
2023/07/06 12:39:48;;;;;;;2.33;2.13;;;25.60;99.90;;;;;;5017928;28;20196;-84
2023/07/06 12:42:17;;;;;;;2.78;2.58;;;25.60;99.90;;;;;;5017695;28;20211;-86
2023/07/06 12:44:46;;;;;;;2.10;2.00;;;25.70;99.90;;;;;;5029861;28;20644;-85
2023/07/06 12:47:21;;;;;;;2.72;2.53;;;25.40;99.50;;;;;;5032483;28;20185;-86
2023/07/06 12:49:49;;;;;;;2.55;2.40;;;25.20;99.90;;;;;;5037566;28;20259;-87
2023/07/06 12:52:17;;;;;;;2.40;2.30;;;25.40;99.90;;;;;;5040170;28;20165;-86
2023/07/06 12:54:53;;;;;;;2.30;2.20;;;25.40;99.90;;;;;;5052299;28;20228;-87
2023/07/06 12:57:25;;;;;;;2.28;2.17;;;25.50;99.90;;;;;;5038843;28;20636;-86
2023/07/06 13:00:12;;;;;;;2.58;2.45;;;25.90;99.90;;;;;;5036051;28;20214;-87
2023/07/06 13:02:39;;;;;;;2.55;2.45;;;26.20;99.90;;;;;;5022858;28;20215;-87
2023/07/06 13:05:26;;;;;;;2.63;2.45;;;26.40;99.90;;;;;;5044896;28;20253;-87
2023/07/06 13:07:53;;;;;;;2.67;2.45;;;26.10;99.90;;;;;;5003182;28;20227;-86